Time;durP1;ratioP1;P1;durP2;ratioP2;P2;SDS_P1;SDS_P2;PMS_P1;PMS_P2;Temp;Humidity;BMP_temperature;BMP_pressure;BME280_temperature;BME280_humidity;BME280_pressure;Samples;Min_cycle;Max_cycle;Signal;HPM_P1;HPM_P2
2022/12/25 00:01:52;;;;;;;;;;;20.70;72.20;;;;;;1537667;76;709;-60
2022/12/25 00:03:55;;;;;;;;;;;20.70;72.20;;;;;;1537234;76;760;-61
2022/12/25 00:05:58;;;;;;;;;;;20.60;72.20;;;;;;1537508;76;719;-59
2022/12/25 00:08:00;;;;;;;;;;;20.70;72.30;;;;;;1533766;76;682;-61
2022/12/25 00:10:03;;;;;;;;;;;20.60;72.00;;;;;;1537652;76;1135;-60
2022/12/25 00:12:05;;;;;;;;;;;20.60;72.10;;;;;;1535531;76;1664;-59
2022/12/25 00:14:07;;;;;;;;;;;20.60;72.10;;;;;;1534518;76;746;-60
2022/12/25 00:16:10;;;;;;;;;;;20.70;72.30;;;;;;1537339;76;1924;-61
2022/12/25 00:18:12;;;;;;;;;;;20.60;72.20;;;;;;1537664;76;1150;-59
2022/12/25 00:20:13;;;;;;;;;;;20.60;72.20;;;;;;1537635;76;727;-59
2022/12/25 00:22:15;;;;;;;;;;;20.60;72.30;;;;;;1547673;76;806;-60
2022/12/25 00:24:17;;;;;;;;;;;20.60;72.30;;;;;;1537121;76;724;-59
2022/12/25 00:26:19;;;;;;;;;;;20.60;72.70;;;;;;1537494;76;1689;-59
2022/12/25 00:28:21;;;;;;;;;;;20.60;73.10;;;;;;1535131;76;1194;-60
2022/12/25 00:30:23;;;;;;;;;;;20.60;72.80;;;;;;1537924;76;674;-58
2022/12/25 00:32:25;;;;;;;;;;;20.60;72.70;;;;;;1536237;76;723;-59
2022/12/25 00:34:27;;;;;;;;;;;20.60;72.80;;;;;;1537615;76;695;-58
2022/12/25 00:36:29;;;;;;;;;;;20.60;72.60;;;;;;1533876;76;707;-60
2022/12/25 00:38:30;;;;;;;;;;;20.60;72.70;;;;;;1544373;76;1153;-62
2022/12/25 00:40:32;;;;;;;;;;;20.60;72.60;;;;;;1537650;76;1715;-59
2022/12/25 00:42:34;;;;;;;;;;;20.60;72.60;;;;;;1528657;76;687;-61
2022/12/25 00:44:36;;;;;;;;;;;20.60;73.00;;;;;;1534091;76;675;-60
2022/12/25 00:46:38;;;;;;;;;;;20.60;72.90;;;;;;1537343;76;697;-61
2022/12/25 00:48:40;;;;;;;;;;;20.60;72.80;;;;;;1537588;76;1111;-61
2022/12/25 00:50:42;;;;;;;;;;;20.60;72.90;;;;;;1536498;76;674;-61
2022/12/25 00:52:44;;;;;;;;;;;20.60;73.00;;;;;;1535968;76;673;-62
2022/12/25 00:54:46;;;;;;;;;;;20.60;73.00;;;;;;1534516;76;1936;-59
2022/12/25 00:56:48;;;;;;;;;;;20.60;73.50;;;;;;1537434;76;703;-60
2022/12/25 00:58:49;;;;;;;;;;;20.60;73.90;;;;;;1537606;76;1132;-59
2022/12/25 01:00:51;;;;;;;;;;;20.70;74.50;;;;;;1531455;76;730;-61
2022/12/25 01:02:53;;;;;;;;;;;20.60;74.00;;;;;;1539220;76;661;-59
2022/12/25 01:04:56;;;;;;;;;;;20.60;73.80;;;;;;1537617;76;776;-59
2022/12/25 01:06:57;;;;;;;;;;;20.60;73.50;;;;;;1537494;76;1531;-61
2022/12/25 01:11:19;;;;;;;;;;;20.60;73.10;;;;;;1537445;76;1662;-60
2022/12/25 01:13:21;;;;;;;;;;;20.60;73.60;;;;;;1534775;76;648;-59
2022/12/25 01:15:23;;;;;;;;;;;20.60;73.40;;;;;;1537471;76;1948;-60
2022/12/25 01:17:25;;;;;;;;;;;20.60;73.40;;;;;;1534558;76;798;-57
2022/12/25 01:19:26;;;;;;;;;;;20.60;73.30;;;;;;1537684;76;1137;-59
2022/12/25 01:21:28;;;;;;;;;;;20.60;73.80;;;;;;1543529;76;1211;-58
2022/12/25 01:23:30;;;;;;;;;;;20.60;73.50;;;;;;1533008;76;665;-61
2022/12/25 01:25:32;;;;;;;;;;;20.60;73.40;;;;;;1546132;76;802;-60
2022/12/25 01:27:34;;;;;;;;;;;20.60;73.30;;;;;;1537528;76;730;-61
2022/12/25 01:29:36;;;;;;;;;;;20.60;73.20;;;;;;1537366;76;1213;-59
2022/12/25 01:31:38;;;;;;;;;;;20.60;73.10;;;;;;1537359;76;727;-58
2022/12/25 01:33:40;;;;;;;;;;;20.60;73.10;;;;;;1537467;76;728;-59
2022/12/25 01:35:42;;;;;;;;;;;20.60;73.20;;;;;;1536265;76;1936;-58
2022/12/25 01:37:44;;;;;;;;;;;20.60;73.20;;;;;;1537692;76;727;-60
2022/12/25 01:39:46;;;;;;;;;;;20.60;73.00;;;;;;1537460;76;1143;-61
2022/12/25 01:41:48;;;;;;;;;;;20.60;73.00;;;;;;1537434;76;725;-59
2022/12/25 01:43:57;;;;;;;;;;;20.70;73.10;;;;;;1525857;76;781;-60
2022/12/25 01:45:58;;;;;;;;;;;20.60;73.10;;;;;;1537539;76;676;-59
2022/12/25 01:48:02;;;;;;;;;;;20.60;73.10;;;;;;1534285;76;766;-60
2022/12/25 01:50:04;;;;;;;;;;;20.60;73.20;;;;;;1538951;76;1580;-59
2022/12/25 01:52:19;;;;;;;;;;;20.60;73.10;;;;;;1534411;76;768;-59
2022/12/25 01:54:25;;;;;;;;;;;20.60;73.40;;;;;;1536474;76;651;-61
2022/12/25 01:56:27;;;;;;;;;;;20.60;73.20;;;;;;1537559;76;1932;-60
2022/12/25 01:58:29;;;;;;;;;;;20.60;73.10;;;;;;1537311;76;1130;-59
2022/12/25 02:00:30;;;;;;;;;;;20.60;73.10;;;;;;1537738;76;780;-59
2022/12/25 02:02:32;;;;;;;;;;;20.60;73.20;;;;;;1535662;76;740;-59
2022/12/25 02:04:39;;;;;;;;;;;20.60;73.20;;;;;;1539843;76;1542;-61
2022/12/25 02:06:41;;;;;;;;;;;20.60;73.10;;;;;;1499044;77;1134;-59
2022/12/25 02:08:42;;;;;;;;;;;20.60;73.20;;;;;;1537409;76;1102;-58
2022/12/25 02:10:44;;;;;;;;;;;20.60;73.20;;;;;;1534225;76;699;-60
2022/12/25 02:12:46;;;;;;;;;;;20.60;73.20;;;;;;1535630;76;739;-58
2022/12/25 02:14:49;;;;;;;;;;;20.60;73.20;;;;;;1536748;76;687;-59
2022/12/25 02:16:51;;;;;;;;;;;20.60;73.20;;;;;;1537272;76;1932;-59
2022/12/25 02:18:55;;;;;;;;;;;20.50;73.40;;;;;;1537354;76;1544;-58
2022/12/25 02:20:58;;;;;;;;;;;20.60;73.20;;;;;;1548911;76;669;-59
2022/12/25 02:23:02;;;;;;;;;;;20.60;73.20;;;;;;1522101;76;1852;-58
2022/12/25 02:25:22;;;;;;;;;;;20.60;73.10;;;;;;1536366;76;828;-58
2022/12/25 02:27:25;;;;;;;;;;;20.60;73.10;;;;;;1535852;76;716;-60
2022/12/25 02:29:32;;;;;;;;;;;20.60;73.00;;;;;;1536515;76;1908;-59
2022/12/25 02:31:44;;;;;;;;;;;20.60;73.00;;;;;;1535461;76;1570;-60
2022/12/25 02:34:03;;;;;;;;;;;20.60;73.00;;;;;;1537575;76;769;-58
2022/12/25 02:36:05;;;;;;;;;;;20.60;73.00;;;;;;1533869;76;1924;-60
2022/12/25 02:38:12;;;;;;;;;;;20.60;73.00;;;;;;1542709;76;754;-59
2022/12/25 02:40:18;;;;;;;;;;;20.60;73.00;;;;;;1537717;76;726;-58
2022/12/25 03:06:41;;;;;;;;;;;20.50;73.00;;;;;;1535273;76;703;-58
2022/12/25 03:08:06;;;;;;;;;;;20.60;72.90;;;;;;1527525;76;1648;-58
2022/12/25 03:12:30;;;;;;;;;;;20.60;73.10;;;;;;1530301;76;1625;-58
2022/12/25 03:16:53;;;;;;;;;;;20.50;73.20;;;;;;1537073;76;1902;-59
2022/12/25 03:18:55;;;;;;;;;;;20.50;73.20;;;;;;1549712;76;1169;-58
2022/12/25 03:27:58;;;;;;;;;;;20.60;73.90;;;;;;1531274;76;1708;-60
2022/12/25 03:32:26;;;;;;;;;;;20.50;73.90;;;;;;1503780;78;926;-61
2022/12/25 04:37:46;;;;;;;;;;;20.50;74.10;;;;;;1541568;75;1465;-59
2022/12/25 04:39:48;;;;;;;;;;;20.40;74.00;;;;;;1559918;75;1216;-59
2022/12/25 04:41:50;;;;;;;;;;;20.40;74.10;;;;;;1555317;75;667;-58
2022/12/25 04:43:52;;;;;;;;;;;20.50;73.90;;;;;;1553019;75;639;-59
2022/12/25 04:45:55;;;;;;;;;;;20.40;74.10;;;;;;1545135;75;594;-59
2022/12/25 04:47:59;;;;;;;;;;;20.50;74.30;;;;;;1547820;75;1334;-59
2022/12/25 04:50:01;;;;;;;;;;;20.50;74.10;;;;;;1550739;75;1478;-58
2022/12/25 04:52:03;;;;;;;;;;;20.50;74.00;;;;;;1555598;75;1445;-59
2022/12/25 04:54:05;;;;;;;;;;;20.50;74.10;;;;;;1538279;75;696;-59
2022/12/25 04:56:06;;;;;;;;;;;20.50;74.00;;;;;;1547468;75;1955;-59
2022/12/25 04:58:08;;;;;;;;;;;20.50;73.90;;;;;;1554211;75;672;-58
2022/12/25 05:00:10;;;;;;;;;;;20.50;73.90;;;;;;1534729;75;1113;-59
2022/12/25 05:02:12;;;;;;;;;;;20.50;73.90;;;;;;1531863;75;727;-59
2022/12/25 05:04:14;;;;;;;;;;;20.50;73.70;;;;;;1546127;75;672;-59
2022/12/25 05:06:16;;;;;;;;;;;20.50;73.70;;;;;;1557915;75;1537;-58
2022/12/25 05:08:18;;;;;;;;;;;20.50;73.60;;;;;;1553861;75;1145;-57
2022/12/25 05:10:20;;;;;;;;;;;20.50;73.60;;;;;;1539117;75;705;-58
2022/12/25 05:12:22;;;;;;;;;;;20.50;73.50;;;;;;1547213;75;661;-58
2022/12/25 05:14:23;;;;;;;;;;;20.60;73.40;;;;;;1551198;75;647;-59
2022/12/25 05:16:25;;;;;;;;;;;20.60;73.40;;;;;;1560383;75;1943;-59
2022/12/25 05:18:27;;;;;;;;;;;20.60;73.20;;;;;;1560534;75;1139;-59
2022/12/25 05:20:29;;;;;;;;;;;20.60;73.30;;;;;;1536724;75;1442;-58
2022/12/25 05:22:31;;;;;;;;;;;20.60;73.20;;;;;;1539130;75;708;-59
2022/12/25 05:24:33;;;;;;;;;;;20.50;73.20;;;;;;1549112;75;677;-58
2022/12/25 05:26:35;;;;;;;;;;;20.60;73.10;;;;;;1544512;75;608;-59
2022/12/25 05:28:37;;;;;;;;;;;20.50;73.10;;;;;;1539501;75;1249;-59
2022/12/25 05:30:38;;;;;;;;;;;20.60;73.10;;;;;;1556860;75;625;-58
2022/12/25 05:32:40;;;;;;;;;;;20.60;73.10;;;;;;1547294;75;672;-59
2022/12/25 05:34:42;;;;;;;;;;;20.60;73.10;;;;;;1545209;75;1466;-58
2022/12/25 05:36:44;;;;;;;;;;;20.60;73.10;;;;;;1553415;75;1945;-58
2022/12/25 05:38:46;;;;;;;;;;;20.60;73.20;;;;;;1541287;75;1165;-59
2022/12/25 05:40:49;;;;;;;;;;;20.50;73.30;;;;;;1546589;75;702;-59
2022/12/25 05:42:51;;;;;;;;;;;20.60;73.50;;;;;;1555695;75;687;-59
2022/12/25 05:44:53;;;;;;;;;;;20.60;73.40;;;;;;1547538;75;750;-59
2022/12/25 05:46:55;;;;;;;;;;;20.50;73.40;;;;;;1549994;75;716;-59
2022/12/25 05:48:57;;;;;;;;;;;20.60;73.30;;;;;;1545462;75;1367;-58
2022/12/25 05:51:00;;;;;;;;;;;20.60;73.30;;;;;;1556905;75;590;-59
2022/12/25 05:53:03;;;;;;;;;;;20.50;73.20;;;;;;1551842;75;1753;-59
2022/12/25 05:55:06;;;;;;;;;;;20.60;73.20;;;;;;1557316;75;659;-59
2022/12/25 05:57:07;;;;;;;;;;;20.60;73.10;;;;;;1545904;75;1924;-59
2022/12/25 05:59:09;;;;;;;;;;;20.60;73.10;;;;;;1550290;75;1237;-58
2022/12/25 06:01:12;;;;;;;;;;;20.60;73.10;;;;;;1554668;75;695;-59
2022/12/25 06:03:14;;;;;;;;;;;20.60;73.10;;;;;;1551217;75;1432;-59
2022/12/25 06:05:16;;;;;;;;;;;20.60;73.10;;;;;;1553743;75;744;-59
2022/12/25 06:07:18;;;;;;;;;;;20.60;73.10;;;;;;1542429;75;666;-59
2022/12/25 06:09:20;;;;;;;;;;;20.60;73.00;;;;;;1551381;75;1137;-59
2022/12/25 06:11:22;;;;;;;;;;;20.60;73.00;;;;;;1539015;75;653;-57
2022/12/25 06:13:24;;;;;;;;;;;20.60;73.10;;;;;;1550130;75;716;-57
2022/12/25 06:15:25;;;;;;;;;;;20.60;73.10;;;;;;1545839;75;691;-56
2022/12/25 06:17:27;;;;;;;;;;;20.60;73.10;;;;;;1554499;75;1947;-57
2022/12/25 06:19:29;;;;;;;;;;;20.50;74.40;;;;;;1560552;75;1152;-57
2022/12/25 06:21:31;;;;;;;;;;;20.50;74.30;;;;;;1543792;75;700;-57
2022/12/25 06:23:33;;;;;;;;;;;20.50;75.40;;;;;;1552492;75;667;-59
2022/12/25 06:25:36;;;;;;;;;;;20.60;74.70;;;;;;1551288;75;676;-57
2022/12/25 06:27:38;;;;;;;;;;;20.60;74.50;;;;;;1544288;75;682;-59
2022/12/25 06:29:40;;;;;;;;;;;20.60;74.20;;;;;;1562886;74;1139;-59
2022/12/25 06:31:42;;;;;;;;;;;20.60;74.10;;;;;;1553820;75;1387;-58
2022/12/25 06:33:44;;;;;;;;;;;20.60;74.10;;;;;;1547719;75;698;-59
2022/12/25 06:35:46;;;;;;;;;;;20.60;74.10;;;;;;1534159;75;668;-61
2022/12/25 06:37:48;;;;;;;;;;;20.60;74.00;;;;;;1559610;75;1972;-59
2022/12/25 06:39:50;;;;;;;;;;;20.60;73.80;;;;;;1555240;75;1137;-59
2022/12/25 06:41:52;;;;;;;;;;;20.60;73.70;;;;;;1547673;75;861;-58
2022/12/25 06:43:54;;;;;;;;;;;20.60;73.80;;;;;;1552727;75;679;-59
2022/12/25 06:45:56;;;;;;;;;;;20.60;73.80;;;;;;1547178;75;1588;-60
2022/12/25 06:47:58;;;;;;;;;;;20.60;74.30;;;;;;1545446;75;695;-60
2022/12/25 06:50:00;;;;;;;;;;;20.60;74.10;;;;;;1535643;75;1091;-59
2022/12/25 06:52:01;;;;;;;;;;;20.60;73.90;;;;;;1535784;75;695;-60
2022/12/25 06:54:04;;;;;;;;;;;20.60;73.90;;;;;;1550647;75;665;-60
2022/12/25 06:56:06;;;;;;;;;;;20.50;73.80;;;;;;1536146;75;630;-59
2022/12/25 06:58:08;;;;;;;;;;;20.60;74.10;;;;;;1536034;75;1941;-59
2022/12/25 07:00:10;;;;;;;;;;;20.60;74.40;;;;;;1538437;75;1815;-59
2022/12/25 07:02:14;;;;;;;;;;;20.60;74.30;;;;;;1539348;75;598;-60
2022/12/25 07:04:18;;;;;;;;;;;20.50;74.60;;;;;;1531848;75;1628;-59
2022/12/25 07:06:20;;;;;;;;;;;20.60;75.00;;;;;;1542372;75;801;-59
2022/12/25 07:08:21;;;;;;;;;;;20.60;77.20;;;;;;1538439;75;1151;-58
2022/12/25 07:10:23;;;;;;;;;;;20.60;76.70;;;;;;1543193;75;682;-59
2022/12/25 07:12:26;;;;;;;;;;;20.70;76.10;;;;;;1536163;75;633;-58
2022/12/25 07:14:28;;;;;;;;;;;20.80;75.70;;;;;;1538878;75;726;-58
2022/12/25 07:16:30;;;;;;;;;;;20.80;75.40;;;;;;1538543;75;701;-57
2022/12/25 07:18:31;;;;;;;;;;;20.80;74.70;;;;;;1560873;74;1941;-60
2022/12/25 07:20:33;;;;;;;;;;;20.80;74.80;;;;;;1554388;75;568;-59
2022/12/25 07:22:35;;;;;;;;;;;20.80;74.40;;;;;;1542370;75;649;-59
2022/12/25 07:24:37;;;;;;;;;;;20.70;74.30;;;;;;1547756;76;731;-60
2022/12/25 07:26:39;;;;;;;;;;;20.70;74.20;;;;;;1543049;75;1488;-58
2022/12/25 07:28:41;;;;;;;;;;;20.70;74.20;;;;;;1536203;75;1111;-58
2022/12/25 07:30:43;;;;;;;;;;;20.70;74.10;;;;;;1545863;75;692;-58
2022/12/25 07:32:45;;;;;;;;;;;20.60;74.00;;;;;;1543005;75;824;-59
2022/12/25 07:34:46;;;;;;;;;;;20.70;74.10;;;;;;1542366;75;683;-58
2022/12/25 07:36:48;;;;;;;;;;;20.60;74.00;;;;;;1550662;75;1947;-58
2022/12/25 07:38:50;;;;;;;;;;;20.60;73.90;;;;;;1533108;75;1138;-59
2022/12/25 07:40:52;;;;;;;;;;;20.70;74.00;;;;;;1542153;75;1447;-58
2022/12/25 07:42:54;;;;;;;;;;;20.60;73.90;;;;;;1542879;75;659;-59
2022/12/25 07:44:56;;;;;;;;;;;20.60;73.90;;;;;;1541440;75;702;-58
2022/12/25 07:46:58;;;;;;;;;;;20.60;73.90;;;;;;1533997;75;667;-58
2022/12/25 07:49:00;;;;;;;;;;;20.60;73.80;;;;;;1533530;76;1129;-58
2022/12/25 07:51:03;;;;;;;;;;;20.60;73.60;;;;;;1536423;75;881;-58
2022/12/25 07:53:05;;;;;;;;;;;20.70;73.40;;;;;;1535688;75;673;-59
2022/12/25 07:55:07;;;;;;;;;;;20.70;73.10;;;;;;1536137;75;1439;-58
2022/12/25 07:57:09;;;;;;;;;;;20.70;73.00;;;;;;1541107;75;1928;-58
2022/12/25 07:59:11;;;;;;;;;;;20.70;72.80;;;;;;1542961;75;1153;-58
2022/12/25 08:01:19;;;;;;;;;;;20.70;72.60;;;;;;1545349;75;645;-58
2022/12/25 08:03:18;;;;;;;;;;;20.70;72.50;;;;;;1532033;75;1718;-58
2022/12/25 08:05:20;;;;;;;;;;;20.70;72.40;;;;;;1534114;76;808;-59
2022/12/25 08:07:22;;;;;;;;;;;20.80;72.40;;;;;;1538305;75;624;-59
2022/12/25 08:09:24;;;;;;;;;;;20.70;72.20;;;;;;1540597;74;1276;-58
2022/12/25 08:11:26;;;;;;;;;;;20.70;72.10;;;;;;1537376;75;703;-59
2022/12/25 08:13:30;;;;;;;;;;;20.70;72.10;;;;;;1540654;75;678;-59
2022/12/25 08:15:32;;;;;;;;;;;20.70;72.10;;;;;;1541496;75;683;-58
2022/12/25 08:17:34;;;;;;;;;;;20.70;72.10;;;;;;1532242;75;1934;-59
2022/12/25 08:19:36;;;;;;;;;;;20.70;72.10;;;;;;1547586;75;1156;-59
2022/12/25 08:21:38;;;;;;;;;;;20.70;72.10;;;;;;1539490;75;706;-58
2022/12/25 08:23:41;;;;;;;;;;;20.70;72.20;;;;;;1539384;75;1324;-58
2022/12/25 08:25:43;;;;;;;;;;;20.70;72.20;;;;;;1540346;75;717;-59
2022/12/25 08:27:44;;;;;;;;;;;20.60;72.20;;;;;;1540760;75;700;-58
2022/12/25 08:29:46;;;;;;;;;;;20.70;72.30;;;;;;1535846;75;1130;-58
2022/12/25 08:31:48;;;;;;;;;;;20.70;72.20;;;;;;1533405;75;691;-59
2022/12/25 08:33:51;;;;;;;;;;;20.60;72.10;;;;;;1539044;75;641;-58
2022/12/25 08:35:53;;;;;;;;;;;20.70;72.30;;;;;;1533447;75;644;-59
2022/12/25 08:37:54;;;;;;;;;;;20.60;72.20;;;;;;1535722;75;1940;-58
2022/12/25 08:39:56;;;;;;;;;;;20.60;72.20;;;;;;1538488;75;1136;-59
2022/12/25 08:41:58;;;;;;;;;;;20.50;72.30;;;;;;1542030;75;672;-59
2022/12/25 08:44:00;;;;;;;;;;;20.50;72.40;;;;;;1535938;75;641;-59
2022/12/25 08:46:02;;;;;;;;;;;20.50;72.40;;;;;;1539923;75;634;-59
2022/12/25 08:48:04;;;;;;;;;;;20.50;72.40;;;;;;1543120;75;630;-58
2022/12/25 08:50:06;;;;;;;;;;;20.50;72.50;;;;;;1534277;75;1107;-59
2022/12/25 08:52:08;;;;;;;;;;;20.50;72.50;;;;;;1537403;75;1495;-58
2022/12/25 08:54:11;;;;;;;;;;;20.50;72.60;;;;;;1540157;75;625;-58
2022/12/25 08:56:12;;;;;;;;;;;20.50;72.60;;;;;;1536370;75;582;-59
2022/12/25 08:58:15;;;;;;;;;;;20.50;72.60;;;;;;1544757;75;1939;-59
2022/12/25 09:00:17;;;;;;;;;;;20.50;72.70;;;;;;1548474;75;716;-58
2022/12/25 09:02:19;;;;;;;;;;;20.50;72.60;;;;;;1540864;75;668;-59
2022/12/25 09:04:21;;;;;;;;;;;20.50;72.70;;;;;;1540567;75;723;-60
2022/12/25 09:06:23;;;;;;;;;;;20.50;72.70;;;;;;1540378;75;1255;-60
2022/12/25 09:08:25;;;;;;;;;;;20.50;72.70;;;;;;1539177;75;1194;-59
2022/12/25 09:10:27;;;;;;;;;;;20.50;72.70;;;;;;1541217;75;697;-59
2022/12/25 09:12:29;;;;;;;;;;;20.40;72.60;;;;;;1542911;75;701;-58
2022/12/25 09:14:31;;;;;;;;;;;20.50;72.70;;;;;;1546843;75;715;-58
2022/12/25 09:16:33;;;;;;;;;;;20.40;72.70;;;;;;1543178;75;716;-58
2022/12/25 09:18:35;;;;;;;;;;;20.50;72.70;;;;;;1539212;75;1916;-59
2022/12/25 09:20:36;;;;;;;;;;;20.50;72.80;;;;;;1546521;75;1519;-58
2022/12/25 09:22:38;;;;;;;;;;;20.40;72.70;;;;;;1547859;75;740;-58
2022/12/25 09:24:42;;;;;;;;;;;20.40;72.70;;;;;;1544195;75;715;-58
2022/12/25 09:26:44;;;;;;;;;;;20.40;72.70;;;;;;1540197;75;700;-58
2022/12/25 09:28:46;;;;;;;;;;;20.40;72.80;;;;;;1543988;75;1098;-58
2022/12/25 09:30:51;;;;;;;;;;;20.40;72.80;;;;;;1538849;75;666;-58
2022/12/25 09:32:53;;;;;;;;;;;20.40;72.80;;;;;;1542598;75;745;-58
2022/12/25 09:34:54;;;;;;;;;;;20.40;72.90;;;;;;1542321;75;1483;-58
2022/12/25 09:36:56;;;;;;;;;;;20.40;72.80;;;;;;1543389;75;712;-59
2022/12/25 09:38:58;;;;;;;;;;;20.40;72.80;;;;;;1541142;75;1931;-58
2022/12/25 09:41:05;;;;;;;;;;;20.40;72.80;;;;;;1544987;75;654;-59
2022/12/25 09:43:08;;;;;;;;;;;20.40;72.80;;;;;;1543489;75;664;-59
2022/12/25 09:45:12;;;;;;;;;;;20.40;73.10;;;;;;1550893;75;585;-59
2022/12/25 09:47:15;;;;;;;;;;;20.40;73.20;;;;;;1553140;75;1360;-59
2022/12/25 09:49:18;;;;;;;;;;;20.30;73.50;;;;;;1543333;75;1166;-59
2022/12/25 09:51:20;;;;;;;;;;;20.40;73.80;;;;;;1542372;75;949;-59
2022/12/25 09:53:23;;;;;;;;;;;20.40;74.60;;;;;;1547649;75;679;-59
2022/12/25 09:55:25;;;;;;;;;;;20.30;75.50;;;;;;1547505;75;995;-59
2022/12/25 09:57:27;;;;;;;;;;;20.40;76.10;;;;;;1537551;75;612;-59
2022/12/25 09:59:29;;;;;;;;;;;20.40;77.20;;;;;;1545786;75;1937;-59
2022/12/25 10:01:33;;;;;;;;;;;20.40;78.20;;;;;;1541869;75;1357;-59
2022/12/25 10:03:45;;;;;;;;;;;20.50;78.10;;;;;;1561099;75;601;-59
2022/12/25 10:06:05;;;;;;;;;;;20.50;78.70;;;;;;1551692;73;2996;-61
2022/12/25 10:08:15;;;;;;;;;;;20.50;78.80;;;;;;1535449;75;688;-60
2022/12/25 10:10:35;;;;;;;;;;;20.50;79.20;;;;;;1510757;76;1150;-61
2022/12/25 10:12:38;;;;;;;;;;;20.60;78.80;;;;;;1518219;76;1032;-60
2022/12/25 10:14:42;;;;;;;;;;;20.70;78.50;;;;;;1524030;76;785;-58
2022/12/25 10:16:45;;;;;;;;;;;20.70;78.00;;;;;;1522802;76;1629;-60
2022/12/25 10:18:55;;;;;;;;;;;20.70;78.00;;;;;;1525977;76;1933;-58
2022/12/25 10:20:57;;;;;;;;;;;20.80;77.50;;;;;;1517070;76;1629;-60
2022/12/25 10:23:00;;;;;;;;;;;20.90;77.50;;;;;;1522652;76;715;-59
2022/12/25 10:25:02;;;;;;;;;;;20.90;77.30;;;;;;1536212;76;919;-60
2022/12/25 10:27:05;;;;;;;;;;;20.90;77.20;;;;;;1523661;76;741;-60
2022/12/25 10:29:14;;;;;;;;;;;20.70;77.00;;;;;;1523059;76;1958;-60
2022/12/25 10:31:20;;;;;;;;;;;20.90;76.90;;;;;;1523628;76;1647;-60
2022/12/25 10:33:22;;;;;;;;;;;20.90;76.80;;;;;;1520866;76;759;-60
2022/12/25 10:35:24;;;;;;;;;;;20.90;76.80;;;;;;1520690;76;746;-61
2022/12/25 10:37:26;;;;;;;;;;;20.90;78.10;;;;;;1518665;76;675;-59
2022/12/25 10:39:28;;;;;;;;;;;21.00;79.90;;;;;;1518284;77;1940;-59
2022/12/25 10:41:48;;;;;;;;;;;20.90;80.70;;;;;;1517707;76;699;-60
2022/12/25 10:43:51;;;;;;;;;;;20.90;81.80;;;;;;1524097;76;1580;-59
2022/12/25 10:45:53;;;;;;;;;;;21.00;80.80;;;;;;1516571;76;699;-61
2022/12/25 10:47:56;;;;;;;;;;;20.90;80.90;;;;;;1525728;76;715;-59
2022/12/25 10:49:58;;;;;;;;;;;21.00;81.00;;;;;;1525436;76;1879;-60
2022/12/25 10:52:02;;;;;;;;;;;21.00;80.80;;;;;;1515893;76;691;-61
2022/12/25 10:54:06;;;;;;;;;;;21.00;81.00;;;;;;1525336;76;664;-59
2022/12/25 10:56:10;;;;;;;;;;;21.00;81.80;;;;;;1517565;76;1634;-59
2022/12/25 10:58:13;;;;;;;;;;;21.00;83.00;;;;;;1520651;76;1936;-59
2022/12/25 11:00:22;;;;;;;;;;;21.10;82.60;;;;;;1521867;76;1972;-60
2022/12/25 11:02:25;;;;;;;;;;;21.00;83.90;;;;;;1525032;76;1174;-61
2022/12/25 11:04:27;;;;;;;;;;;21.10;83.00;;;;;;1521624;76;1053;-58
2022/12/25 11:06:30;;;;;;;;;;;21.10;82.60;;;;;;1519659;76;825;-61
2022/12/25 11:08:33;;;;;;;;;;;21.20;84.20;;;;;;1522889;76;1146;-58
2022/12/25 11:10:36;;;;;;;;;;;21.20;82.50;;;;;;1520909;76;714;-58
2022/12/25 11:12:39;;;;;;;;;;;21.20;82.30;;;;;;1525218;76;1548;-60
2022/12/25 11:14:43;;;;;;;;;;;21.20;82.10;;;;;;1519668;76;1933;-59
2022/12/25 11:16:45;;;;;;;;;;;21.20;81.90;;;;;;1519267;76;1882;-58
2022/12/25 11:18:48;;;;;;;;;;;21.20;81.70;;;;;;1522646;76;1940;-59
2022/12/25 11:20:50;;;;;;;;;;;21.30;81.70;;;;;;1524026;76;953;-58
2022/12/25 11:22:52;;;;;;;;;;;21.20;81.40;;;;;;1524569;76;697;-58
2022/12/25 11:24:54;;;;;;;;;;;21.30;81.40;;;;;;1523567;76;718;-59
2022/12/25 11:26:58;;;;;;;;;;;21.30;81.00;;;;;;1526516;76;1557;-59
2022/12/25 11:28:59;;;;;;;;;;;21.30;80.90;;;;;;1524981;76;1169;-60
2022/12/25 11:31:03;;;;;;;;;;;21.40;80.90;;;;;;1525751;76;701;-59
2022/12/25 11:33:06;;;;;;;;;;;21.40;80.80;;;;;;1514486;76;1857;-61
2022/12/25 11:35:12;;;;;;;;;;;21.40;80.60;;;;;;1519445;76;748;-59
2022/12/25 11:37:18;;;;;;;;;;;21.40;80.00;;;;;;1522674;76;896;-59
2022/12/25 11:39:24;;;;;;;;;;;21.40;79.40;;;;;;1521140;76;1904;-60
2022/12/25 11:41:27;;;;;;;;;;;21.50;78.90;;;;;;1519216;76;1573;-59
2022/12/25 11:43:31;;;;;;;;;;;21.40;78.40;;;;;;1519661;76;723;-61
2022/12/25 11:45:35;;;;;;;;;;;21.50;78.10;;;;;;1511245;76;1782;-62
2022/12/25 11:47:38;;;;;;;;;;;21.50;77.80;;;;;;1512796;76;714;-59
2022/12/25 11:49:42;;;;;;;;;;;21.50;77.50;;;;;;1522680;76;1196;-59
2022/12/25 11:51:44;;;;;;;;;;;21.50;77.30;;;;;;1521268;76;690;-59
2022/12/25 11:53:54;;;;;;;;;;;21.50;77.00;;;;;;1517690;76;1579;-60
2022/12/25 11:55:58;;;;;;;;;;;21.50;76.90;;;;;;1516528;76;1821;-58
2022/12/25 11:58:01;;;;;;;;;;;21.50;76.70;;;;;;1526426;76;1816;-61
2022/12/25 12:00:05;;;;;;;;;;;21.50;76.50;;;;;;1522948;76;1940;-61
2022/12/25 12:02:27;;;;;;;;;;;21.50;76.40;;;;;;1515280;76;857;-59
2022/12/25 12:04:30;;;;;;;;;;;21.40;76.20;;;;;;1474179;79;1065;-58
2022/12/25 12:06:34;;;;;;;;;;;21.40;76.30;;;;;;1468354;79;785;-59
2022/12/25 12:08:36;;;;;;;;;;;21.40;76.20;;;;;;1466833;79;2024;-60
2022/12/25 12:10:48;;;;;;;;;;;21.40;76.20;;;;;;1510520;77;920;-59
2022/12/25 12:12:52;;;;;;;;;;;21.30;76.20;;;;;;1517914;76;685;-59
2022/12/25 12:14:55;;;;;;;;;;;21.30;76.20;;;;;;1515033;76;697;-59
2022/12/25 12:16:57;;;;;;;;;;;21.40;76.10;;;;;;1520462;76;1293;-60
2022/12/25 12:18:59;;;;;;;;;;;21.40;76.10;;;;;;1518900;76;1936;-61
2022/12/25 12:21:01;;;;;;;;;;;21.40;76.00;;;;;;1498709;78;1245;-59
2022/12/25 12:23:04;;;;;;;;;;;21.30;76.00;;;;;;1488413;78;1559;-59
2022/12/25 12:25:06;;;;;;;;;;;21.40;75.90;;;;;;1490984;78;773;-61
2022/12/25 12:27:09;;;;;;;;;;;21.30;75.90;;;;;;1467053;79;724;-60
2022/12/25 12:29:31;;;;;;;;;;;21.30;75.50;;;;;;1490363;78;1902;-59
2022/12/25 12:31:37;;;;;;;;;;;21.20;76.20;;;;;;1515307;76;736;-60
2022/12/25 12:33:43;;;;;;;;;;;21.30;76.20;;;;;;1520489;76;739;-59
2022/12/25 12:35:45;;;;;;;;;;;21.40;76.10;;;;;;1520450;76;715;-59
2022/12/25 12:37:49;;;;;;;;;;;21.30;76.00;;;;;;1521126;76;1593;-58
2022/12/25 12:39:54;;;;;;;;;;;21.20;75.80;;;;;;1519394;76;1942;-60
2022/12/25 12:41:55;;;;;;;;;;;21.20;75.80;;;;;;1515635;76;659;-59
2022/12/25 12:43:57;;;;;;;;;;;21.30;76.00;;;;;;1521101;76;682;-59
2022/12/25 12:46:01;;;;;;;;;;;21.30;76.00;;;;;;1516464;76;628;-59
2022/12/25 12:48:15;;;;;;;;;;;21.20;76.00;;;;;;1518062;76;750;-59
2022/12/25 12:50:28;;;;;;;;;;;21.20;75.20;;;;;;1519708;76;1566;-59
2022/12/25 12:52:36;;;;;;;;;;;21.10;75.20;;;;;;1494625;78;719;-60
2022/12/25 12:54:52;;;;;;;;;;;21.10;75.40;;;;;;1466786;79;657;-61
2022/12/25 12:57:00;;;;;;;;;;;21.00;75.30;;;;;;1505664;78;1419;-60
2022/12/25 12:59:02;;;;;;;;;;;21.10;75.40;;;;;;1491789;78;1940;-60
2022/12/25 13:01:15;;;;;;;;;;;21.10;75.70;;;;;;1495652;78;753;-60
2022/12/25 13:03:31;;;;;;;;;;;21.10;75.80;;;;;;1491700;78;697;-59
2022/12/25 13:05:44;;;;;;;;;;;21.00;75.70;;;;;;1489571;78;1653;-58
2022/12/25 13:07:51;;;;;;;;;;;21.00;75.80;;;;;;1497009;78;861;-59
2022/12/25 13:10:03;;;;;;;;;;;21.00;75.90;;;;;;1491967;78;1915;-59
2022/12/25 13:12:07;;;;;;;;;;;21.00;76.00;;;;;;1488344;78;735;-59
2022/12/25 13:14:13;;;;;;;;;;;21.10;76.20;;;;;;1495665;78;754;-60
2022/12/25 13:16:29;;;;;;;;;;;21.10;76.20;;;;;;1489223;79;770;-59
2022/12/25 13:18:31;;;;;;;;;;;21.00;76.10;;;;;;1497967;78;1531;-59
2022/12/25 13:20:35;;;;;;;;;;;21.00;76.10;;;;;;1497220;79;1948;-61
2022/12/25 13:22:37;;;;;;;;;;;21.00;76.10;;;;;;1496202;78;742;-60
2022/12/25 13:24:38;;;;;;;;;;;21.00;76.20;;;;;;1492831;78;782;-62
2022/12/25 13:26:40;;;;;;;;;;;21.00;76.20;;;;;;1491233;78;713;-60
2022/12/25 13:28:44;;;;;;;;;;;21.00;76.20;;;;;;1490889;78;1148;-60
2022/12/25 13:30:46;;;;;;;;;;;21.00;76.20;;;;;;1492775;78;623;-60
2022/12/25 13:32:48;;;;;;;;;;;21.00;76.20;;;;;;1495607;78;1571;-60
2022/12/25 13:34:50;;;;;;;;;;;21.00;76.30;;;;;;1495259;79;643;-59
2022/12/25 13:36:52;;;;;;;;;;;21.00;76.30;;;;;;1490776;79;684;-59
2022/12/25 13:38:55;;;;;;;;;;;21.00;76.30;;;;;;1491317;78;1954;-60
2022/12/25 13:43:00;;;;;;;;;;;21.00;77.30;;;;;;1445209;79;901;-60
2022/12/25 13:45:05;;;;;;;;;;;21.00;76.20;;;;;;1496021;78;708;-60
2022/12/25 13:47:17;;;;;;;;;;;21.00;76.00;;;;;;1495521;78;1394;-61
2022/12/25 13:49:19;;;;;;;;;;;20.90;75.80;;;;;;1489694;78;1204;-60
2022/12/25 13:51:22;;;;;;;;;;;20.90;75.70;;;;;;1492711;79;729;-61
2022/12/25 13:53:24;;;;;;;;;;;20.90;75.60;;;;;;1496367;79;682;-61
2022/12/25 13:55:26;;;;;;;;;;;20.90;75.60;;;;;;1493908;79;728;-60
2022/12/25 13:57:35;;;;;;;;;;;20.90;75.40;;;;;;1495311;78;750;-60
2022/12/25 13:59:37;;;;;;;;;;;20.90;75.40;;;;;;1490576;78;1932;-62
2022/12/25 14:01:40;;;;;;;;;;;20.90;75.30;;;;;;1486605;78;1556;-63